sensor_id;sensor_type;location;lat;lon;timestamp;temperature;humidity
31819;DHT22;18384;48.860;9.188;2022-09-14T00:01:25;20.90;93.20
31819;DHT22;18384;48.860;9.188;2022-09-14T00:03:58;20.90;93.20
31819;DHT22;18384;48.860;9.188;2022-09-14T00:06:27;20.90;93.30
31819;DHT22;18384;48.860;9.188;2022-09-14T00:08:56;20.90;93.30
31819;DHT22;18384;48.860;9.188;2022-09-14T00:11:26;20.80;93.90
31819;DHT22;18384;48.860;9.188;2022-09-14T00:13:53;20.80;94.60
31819;DHT22;18384;48.860;9.188;2022-09-14T00:16:31;20.90;94.20
31819;DHT22;18384;48.860;9.188;2022-09-14T00:19:00;20.80;93.80
31819;DHT22;18384;48.860;9.188;2022-09-14T00:21:35;20.80;93.60
31819;DHT22;18384;48.860;9.188;2022-09-14T00:24:04;20.80;93.50
31819;DHT22;18384;48.860;9.188;2022-09-14T00:26:32;20.80;93.80
31819;DHT22;18384;48.860;9.188;2022-09-14T00:28:58;20.90;93.90
31819;DHT22;18384;48.860;9.188;2022-09-14T00:31:30;20.80;93.70
31819;DHT22;18384;48.860;9.188;2022-09-14T00:34:00;20.80;94.00
31819;DHT22;18384;48.860;9.188;2022-09-14T00:36:29;20.80;93.50
31819;DHT22;18384;48.860;9.188;2022-09-14T00:38:56;20.90;93.80
31819;DHT22;18384;48.860;9.188;2022-09-14T00:41:25;20.80;93.70
31819;DHT22;18384;48.860;9.188;2022-09-14T00:44:06;20.90;93.70
31819;DHT22;18384;48.860;9.188;2022-09-14T00:48:03;20.80;93.70
31819;DHT22;18384;48.860;9.188;2022-09-14T00:50:29;20.90;93.50
31819;DHT22;18384;48.860;9.188;2022-09-14T00:52:56;20.90;93.70
31819;DHT22;18384;48.860;9.188;2022-09-14T00:55:22;20.80;94.00
31819;DHT22;18384;48.860;9.188;2022-09-14T00:57:51;20.80;94.70
31819;DHT22;18384;48.860;9.188;2022-09-14T01:00:28;20.80;94.90
31819;DHT22;18384;48.860;9.188;2022-09-14T01:02:54;20.80;94.70
31819;DHT22;18384;48.860;9.188;2022-09-14T01:16:13;20.80;94.00
31819;DHT22;18384;48.860;9.188;2022-09-14T01:19:59;20.80;94.10
31819;DHT22;18384;48.860;9.188;2022-09-14T01:23:59;20.80;94.40
31819;DHT22;18384;48.860;9.188;2022-09-14T01:30:11;20.70;94.40
31819;DHT22;18384;48.860;9.188;2022-09-14T01:32:49;20.70;96.10
31819;DHT22;18384;48.860;9.188;2022-09-14T01:35:57;20.70;96.50
31819;DHT22;18384;48.860;9.188;2022-09-14T01:38:33;20.70;96.50
31819;DHT22;18384;48.860;9.188;2022-09-14T01:41:09;20.60;96.70
31819;DHT22;18384;48.860;9.188;2022-09-14T01:43:53;20.60;98.10
31819;DHT22;18384;48.860;9.188;2022-09-14T01:46:28;20.40;99.30
31819;DHT22;18384;48.860;9.188;2022-09-14T01:49:06;20.10;99.90
31819;DHT22;18384;48.860;9.188;2022-09-14T01:52:04;20.00;99.90
31819;DHT22;18384;48.860;9.188;2022-09-14T01:57:43;19.70;99.90
31819;DHT22;18384;48.860;9.188;2022-09-14T02:00:20;19.60;99.90
31819;DHT22;18384;48.860;9.188;2022-09-14T02:03:18;19.70;99.90
31819;DHT22;18384;48.860;9.188;2022-09-14T02:06:50;19.60;99.90
31819;DHT22;18384;48.860;9.188;2022-09-14T02:09:19;19.60;99.90
31819;DHT22;18384;48.860;9.188;2022-09-14T02:11:47;19.70;99.90
31819;DHT22;18384;48.860;9.188;2022-09-14T02:14:13;19.90;99.90
31819;DHT22;18384;48.860;9.188;2022-09-14T02:16:39;19.80;99.90
31819;DHT22;18384;48.860;9.188;2022-09-14T02:19:08;19.90;99.90
31819;DHT22;18384;48.860;9.188;2022-09-14T02:21:34;20.20;99.90
31819;DHT22;18384;48.860;9.188;2022-09-14T02:24:02;19.80;99.90
31819;DHT22;18384;48.860;9.188;2022-09-14T02:26:29;19.80;99.90
31819;DHT22;18384;48.860;9.188;2022-09-14T02:28:56;19.70;99.90
31819;DHT22;18384;48.860;9.188;2022-09-14T02:38:23;20.10;99.90
31819;DHT22;18384;48.860;9.188;2022-09-14T02:41:25;19.90;99.90
31819;DHT22;18384;48.860;9.188;2022-09-14T02:47:44;19.80;99.90
31819;DHT22;18384;48.860;9.188;2022-09-14T02:52:14;19.80;99.90
31819;DHT22;18384;48.860;9.188;2022-09-14T02:54:56;19.80;99.90
31819;DHT22;18384;48.860;9.188;2022-09-14T02:58:17;19.80;99.90
31819;DHT22;18384;48.860;9.188;2022-09-14T03:00:48;19.70;99.90
31819;DHT22;18384;48.860;9.188;2022-09-14T03:03:17;19.70;99.90
31819;DHT22;18384;48.860;9.188;2022-09-14T03:05:44;19.80;99.90
31819;DHT22;18384;48.860;9.188;2022-09-14T03:08:10;19.80;99.90
31819;DHT22;18384;48.860;9.188;2022-09-14T03:10:37;19.80;99.90
31819;DHT22;18384;48.860;9.188;2022-09-14T03:13:06;19.90;99.90
31819;DHT22;18384;48.860;9.188;2022-09-14T03:15:32;19.80;99.90
31819;DHT22;18384;48.860;9.188;2022-09-14T03:17:58;19.80;99.90
31819;DHT22;18384;48.860;9.188;2022-09-14T03:20:26;19.90;99.90
31819;DHT22;18384;48.860;9.188;2022-09-14T03:22:54;19.90;99.90
31819;DHT22;18384;48.860;9.188;2022-09-14T03:25:20;18.70;99.90
31819;DHT22;18384;48.860;9.188;2022-09-14T03:27:51;19.90;99.90
31819;DHT22;18384;48.860;9.188;2022-09-14T03:30:18;20.00;99.90
31819;DHT22;18384;48.860;9.188;2022-09-14T03:32:45;19.90;99.90
31819;DHT22;18384;48.860;9.188;2022-09-14T03:35:12;19.80;99.90
31819;DHT22;18384;48.860;9.188;2022-09-14T03:37:39;19.80;99.90
31819;DHT22;18384;48.860;9.188;2022-09-14T03:40:09;19.70;99.90
31819;DHT22;18384;48.860;9.188;2022-09-14T03:42:41;19.70;99.90
31819;DHT22;18384;48.860;9.188;2022-09-14T03:45:12;19.80;99.90
31819;DHT22;18384;48.860;9.188;2022-09-14T03:47:39;19.80;99.90
31819;DHT22;18384;48.860;9.188;2022-09-14T03:50:07;19.80;99.90
31819;DHT22;18384;48.860;9.188;2022-09-14T03:52:35;19.80;99.90
31819;DHT22;18384;48.860;9.188;2022-09-14T03:55:03;20.50;99.90
31819;DHT22;18384;48.860;9.188;2022-09-14T03:57:30;19.80;99.90
31819;DHT22;18384;48.860;9.188;2022-09-14T03:59:57;19.80;99.90
31819;DHT22;18384;48.860;9.188;2022-09-14T04:02:24;19.90;99.90
31819;DHT22;18384;48.860;9.188;2022-09-14T04:04:50;19.80;99.90
31819;DHT22;18384;48.860;9.188;2022-09-14T04:07:16;19.80;99.90
31819;DHT22;18384;48.860;9.188;2022-09-14T04:09:42;19.80;99.90
31819;DHT22;18384;48.860;9.188;2022-09-14T04:12:09;19.80;99.90
31819;DHT22;18384;48.860;9.188;2022-09-14T04:14:35;19.80;99.90
31819;DHT22;18384;48.860;9.188;2022-09-14T04:17:02;19.80;99.90
31819;DHT22;18384;48.860;9.188;2022-09-14T04:19:28;19.80;99.90
31819;DHT22;18384;48.860;9.188;2022-09-14T04:21:55;19.80;99.90
31819;DHT22;18384;48.860;9.188;2022-09-14T04:24:21;19.80;99.90
31819;DHT22;18384;48.860;9.188;2022-09-14T04:26:47;19.70;99.90
31819;DHT22;18384;48.860;9.188;2022-09-14T04:29:13;19.70;99.90
31819;DHT22;18384;48.860;9.188;2022-09-14T04:31:40;19.70;99.90
31819;DHT22;18384;48.860;9.188;2022-09-14T04:34:06;19.70;99.90
31819;DHT22;18384;48.860;9.188;2022-09-14T04:36:32;19.70;99.90
31819;DHT22;18384;48.860;9.188;2022-09-14T04:38:59;19.70;99.90
31819;DHT22;18384;48.860;9.188;2022-09-14T04:41:26;19.70;99.90
31819;DHT22;18384;48.860;9.188;2022-09-14T04:43:54;19.70;99.90
31819;DHT22;18384;48.860;9.188;2022-09-14T04:46:25;19.70;99.90
31819;DHT22;18384;48.860;9.188;2022-09-14T04:48:52;19.70;99.90
31819;DHT22;18384;48.860;9.188;2022-09-14T04:51:20;19.70;99.90
31819;DHT22;18384;48.860;9.188;2022-09-14T04:53:50;19.70;99.90
31819;DHT22;18384;48.860;9.188;2022-09-14T04:56:19;19.70;99.90
31819;DHT22;18384;48.860;9.188;2022-09-14T04:58:49;19.70;99.90
31819;DHT22;18384;48.860;9.188;2022-09-14T05:01:21;19.70;99.90
31819;DHT22;18384;48.860;9.188;2022-09-14T05:03:49;19.70;99.90
31819;DHT22;18384;48.860;9.188;2022-09-14T05:06:21;19.70;99.90
31819;DHT22;18384;48.860;9.188;2022-09-14T05:08:50;19.80;99.90
31819;DHT22;18384;48.860;9.188;2022-09-14T05:11:21;19.80;99.90
31819;DHT22;18384;48.860;9.188;2022-09-14T05:13:49;19.80;99.90
31819;DHT22;18384;48.860;9.188;2022-09-14T05:16:21;19.70;99.90
31819;DHT22;18384;48.860;9.188;2022-09-14T05:18:56;19.60;99.90
31819;DHT22;18384;48.860;9.188;2022-09-14T05:21:25;19.70;99.90
31819;DHT22;18384;48.860;9.188;2022-09-14T05:23:54;19.60;99.90
31819;DHT22;18384;48.860;9.188;2022-09-14T05:26:22;19.60;99.90
31819;DHT22;18384;48.860;9.188;2022-09-14T05:28:51;19.60;99.90
31819;DHT22;18384;48.860;9.188;2022-09-14T05:31:18;19.60;99.90
31819;DHT22;18384;48.860;9.188;2022-09-14T05:33:46;19.70;99.90
31819;DHT22;18384;48.860;9.188;2022-09-14T05:36:12;19.90;99.90
31819;DHT22;18384;48.860;9.188;2022-09-14T05:38:39;19.80;99.90
31819;DHT22;18384;48.860;9.188;2022-09-14T05:41:07;19.70;99.90
31819;DHT22;18384;48.860;9.188;2022-09-14T05:43:38;19.90;99.90
31819;DHT22;18384;48.860;9.188;2022-09-14T05:46:10;19.90;99.90
31819;DHT22;18384;48.860;9.188;2022-09-14T05:48:38;19.90;99.90
31819;DHT22;18384;48.860;9.188;2022-09-14T05:51:10;19.90;99.90
31819;DHT22;18384;48.860;9.188;2022-09-14T05:53:38;20.00;99.90
31819;DHT22;18384;48.860;9.188;2022-09-14T05:56:08;20.00;99.90
31819;DHT22;18384;48.860;9.188;2022-09-14T05:58:36;20.00;99.90
31819;DHT22;18384;48.860;9.188;2022-09-14T06:01:08;20.00;99.90
31819;DHT22;18384;48.860;9.188;2022-09-14T06:03:37;20.10;99.90
31819;DHT22;18384;48.860;9.188;2022-09-14T06:06:05;20.10;99.90
31819;DHT22;18384;48.860;9.188;2022-09-14T06:08:32;20.10;99.90
31819;DHT22;18384;48.860;9.188;2022-09-14T06:11:07;20.20;99.90
31819;DHT22;18384;48.860;9.188;2022-09-14T06:13:36;20.20;99.90
31819;DHT22;18384;48.860;9.188;2022-09-14T06:16:08;20.20;99.90
31819;DHT22;18384;48.860;9.188;2022-09-14T06:18:36;20.20;99.90
31819;DHT22;18384;48.860;9.188;2022-09-14T06:21:03;20.30;99.90
31819;DHT22;18384;48.860;9.188;2022-09-14T06:23:31;20.30;99.90
31819;DHT22;18384;48.860;9.188;2022-09-14T06:25:59;20.30;99.90
31819;DHT22;18384;48.860;9.188;2022-09-14T06:28:27;20.30;99.90
31819;DHT22;18384;48.860;9.188;2022-09-14T06:30:54;20.40;99.90
31819;DHT22;18384;48.860;9.188;2022-09-14T06:33:21;20.50;99.90
31819;DHT22;18384;48.860;9.188;2022-09-14T06:35:58;20.40;99.90
31819;DHT22;18384;48.860;9.188;2022-09-14T06:38:27;20.40;99.90
31819;DHT22;18384;48.860;9.188;2022-09-14T06:40:58;20.50;99.90
31819;DHT22;18384;48.860;9.188;2022-09-14T06:43:34;20.50;99.90
31819;DHT22;18384;48.860;9.188;2022-09-14T06:46:10;20.40;99.90
31819;DHT22;18384;48.860;9.188;2022-09-14T06:48:47;20.40;99.90
31819;DHT22;18384;48.860;9.188;2022-09-14T06:51:41;20.50;99.90
31819;DHT22;18384;48.860;9.188;2022-09-14T06:54:10;20.60;99.90
31819;DHT22;18384;48.860;9.188;2022-09-14T06:56:39;20.60;99.90
31819;DHT22;18384;48.860;9.188;2022-09-14T06:59:08;20.70;99.90
31819;DHT22;18384;48.860;9.188;2022-09-14T07:01:36;20.80;99.90
31819;DHT22;18384;48.860;9.188;2022-09-14T07:04:03;20.90;99.90
31819;DHT22;18384;48.860;9.188;2022-09-14T07:06:32;21.10;99.90
31819;DHT22;18384;48.860;9.188;2022-09-14T07:09:03;21.10;99.90
31819;DHT22;18384;48.860;9.188;2022-09-14T07:11:29;21.20;99.90
31819;DHT22;18384;48.860;9.188;2022-09-14T07:13:56;22.50;99.90
31819;DHT22;18384;48.860;9.188;2022-09-14T07:16:24;21.50;99.90
31819;DHT22;18384;48.860;9.188;2022-09-14T07:18:55;21.60;99.90
31819;DHT22;18384;48.860;9.188;2022-09-14T07:21:23;21.70;99.90
31819;DHT22;18384;48.860;9.188;2022-09-14T07:23:50;21.80;99.90
31819;DHT22;18384;48.860;9.188;2022-09-14T07:26:17;21.90;99.90
31819;DHT22;18384;48.860;9.188;2022-09-14T07:28:50;22.00;99.90
31819;DHT22;18384;48.860;9.188;2022-09-14T07:31:21;22.00;99.90
31819;DHT22;18384;48.860;9.188;2022-09-14T07:33:55;22.00;99.90
31819;DHT22;18384;48.860;9.188;2022-09-14T07:36:23;21.90;99.90
31819;DHT22;18384;48.860;9.188;2022-09-14T07:38:50;21.90;99.90
31819;DHT22;18384;48.860;9.188;2022-09-14T07:41:17;22.00;99.90
31819;DHT22;18384;48.860;9.188;2022-09-14T07:43:48;21.90;99.90
31819;DHT22;18384;48.860;9.188;2022-09-14T07:46:18;22.10;99.90
31819;DHT22;18384;48.860;9.188;2022-09-14T07:48:45;22.10;99.90
31819;DHT22;18384;48.860;9.188;2022-09-14T07:51:11;22.10;99.90
31819;DHT22;18384;48.860;9.188;2022-09-14T07:53:41;22.20;99.90
31819;DHT22;18384;48.860;9.188;2022-09-14T07:56:09;22.20;99.90
31819;DHT22;18384;48.860;9.188;2022-09-14T07:58:36;22.30;99.90
31819;DHT22;18384;48.860;9.188;2022-09-14T08:01:05;22.40;99.90
31819;DHT22;18384;48.860;9.188;2022-09-14T08:03:34;22.40;99.90
31819;DHT22;18384;48.860;9.188;2022-09-14T08:06:07;22.40;99.90
31819;DHT22;18384;48.860;9.188;2022-09-14T08:08:39;22.40;99.90
31819;DHT22;18384;48.860;9.188;2022-09-14T08:11:40;22.50;99.90
31819;DHT22;18384;48.860;9.188;2022-09-14T08:14:08;22.60;99.90
31819;DHT22;18384;48.860;9.188;2022-09-14T08:16:36;22.50;99.90
31819;DHT22;18384;48.860;9.188;2022-09-14T08:19:09;22.50;99.90
31819;DHT22;18384;48.860;9.188;2022-09-14T08:21:55;22.50;99.90
31819;DHT22;18384;48.860;9.188;2022-09-14T08:24:22;22.70;99.90
31819;DHT22;18384;48.860;9.188;2022-09-14T08:26:48;22.70;99.90
31819;DHT22;18384;48.860;9.188;2022-09-14T08:29:16;22.60;99.90
31819;DHT22;18384;48.860;9.188;2022-09-14T08:31:43;22.50;99.90
31819;DHT22;18384;48.860;9.188;2022-09-14T08:34:10;22.50;99.90
31819;DHT22;18384;48.860;9.188;2022-09-14T08:36:39;22.60;99.90
31819;DHT22;18384;48.860;9.188;2022-09-14T08:39:08;22.80;99.90
31819;DHT22;18384;48.860;9.188;2022-09-14T08:45:14;22.90;99.90
31819;DHT22;18384;48.860;9.188;2022-09-14T08:47:42;23.10;99.90
31819;DHT22;18384;48.860;9.188;2022-09-14T08:50:13;23.10;99.90
31819;DHT22;18384;48.860;9.188;2022-09-14T08:52:49;23.20;99.90
31819;DHT22;18384;48.860;9.188;2022-09-14T08:55:30;23.30;99.90
31819;DHT22;18384;48.860;9.188;2022-09-14T08:58:46;23.30;99.90
31819;DHT22;18384;48.860;9.188;2022-09-14T09:02:49;23.30;99.90
31819;DHT22;18384;48.860;9.188;2022-09-14T09:08:12;23.50;99.90
31819;DHT22;18384;48.860;9.188;2022-09-14T09:10:42;23.50;99.90
31819;DHT22;18384;48.860;9.188;2022-09-14T09:13:13;23.60;99.90
31819;DHT22;18384;48.860;9.188;2022-09-14T09:15:50;23.80;99.90
31819;DHT22;18384;48.860;9.188;2022-09-14T09:18:41;23.90;99.80
31819;DHT22;18384;48.860;9.188;2022-09-14T09:21:25;23.80;99.30
31819;DHT22;18384;48.860;9.188;2022-09-14T09:24:39;23.90;99.70
31819;DHT22;18384;48.860;9.188;2022-09-14T09:27:11;23.90;99.70
31819;DHT22;18384;48.860;9.188;2022-09-14T09:29:39;23.90;99.40
31819;DHT22;18384;48.860;9.188;2022-09-14T09:32:14;24.00;99.10
31819;DHT22;18384;48.860;9.188;2022-09-14T09:34:42;24.10;99.00
31819;DHT22;18384;48.860;9.188;2022-09-14T09:37:14;24.10;98.80
31819;DHT22;18384;48.860;9.188;2022-09-14T09:39:42;24.00;98.90
31819;DHT22;18384;48.860;9.188;2022-09-14T09:42:17;24.10;98.60
31819;DHT22;18384;48.860;9.188;2022-09-14T09:44:58;24.10;98.60
31819;DHT22;18384;48.860;9.188;2022-09-14T09:47:32;24.10;98.30
31819;DHT22;18384;48.860;9.188;2022-09-14T09:50:18;24.20;98.70
31819;DHT22;18384;48.860;9.188;2022-09-14T09:52:53;24.20;98.40
31819;DHT22;18384;48.860;9.188;2022-09-14T09:55:24;24.30;98.80
31819;DHT22;18384;48.860;9.188;2022-09-14T09:57:53;24.40;98.20
31819;DHT22;18384;48.860;9.188;2022-09-14T10:00:23;24.40;98.30
31819;DHT22;18384;48.860;9.188;2022-09-14T10:02:52;24.50;98.20
31819;DHT22;18384;48.860;9.188;2022-09-14T10:05:22;24.50;97.70
31819;DHT22;18384;48.860;9.188;2022-09-14T10:08:04;24.60;98.00
31819;DHT22;18384;48.860;9.188;2022-09-14T10:10:48;24.60;98.00
31819;DHT22;18384;48.860;9.188;2022-09-14T10:13:29;24.60;98.10
31819;DHT22;18384;48.860;9.188;2022-09-14T10:16:17;24.80;98.00
31819;DHT22;18384;48.860;9.188;2022-09-14T10:18:47;24.70;97.20
31819;DHT22;18384;48.860;9.188;2022-09-14T10:21:16;24.80;97.20
31819;DHT22;18384;48.860;9.188;2022-09-14T10:23:46;24.80;96.70
31819;DHT22;18384;48.860;9.188;2022-09-14T10:26:34;24.90;96.90
31819;DHT22;18384;48.860;9.188;2022-09-14T10:35:59;25.00;96.60
31819;DHT22;18384;48.860;9.188;2022-09-14T10:46:20;25.80;95.80
31819;DHT22;18384;48.860;9.188;2022-09-14T10:52:42;25.90;94.30
31819;DHT22;18384;48.860;9.188;2022-09-14T10:55:32;25.90;94.60
31819;DHT22;18384;48.860;9.188;2022-09-14T10:58:51;25.80;93.70
31819;DHT22;18384;48.860;9.188;2022-09-14T11:01:57;25.80;94.30
31819;DHT22;18384;48.860;9.188;2022-09-14T11:05:14;25.80;94.00
31819;DHT22;18384;48.860;9.188;2022-09-14T11:14:52;25.80;93.30
31819;DHT22;18384;48.860;9.188;2022-09-14T11:22:20;25.90;93.50
31819;DHT22;18384;48.860;9.188;2022-09-14T11:25:04;26.00;93.80
31819;DHT22;18384;48.860;9.188;2022-09-14T11:29:26;26.10;93.60
31819;DHT22;18384;48.860;9.188;2022-09-14T11:32:04;25.90;93.10
31819;DHT22;18384;48.860;9.188;2022-09-14T11:35:10;26.00;93.10
31819;DHT22;18384;48.860;9.188;2022-09-14T11:37:47;26.00;93.20
31819;DHT22;18384;48.860;9.188;2022-09-14T11:40:26;25.90;93.60
31819;DHT22;18384;48.860;9.188;2022-09-14T11:43:08;26.00;94.00
31819;DHT22;18384;48.860;9.188;2022-09-14T11:52:45;26.00;93.50
31819;DHT22;18384;48.860;9.188;2022-09-14T11:55:17;26.40;93.70
31819;DHT22;18384;48.860;9.188;2022-09-14T11:57:44;26.40;93.00
31819;DHT22;18384;48.860;9.188;2022-09-14T12:01:45;26.50;93.20
31819;DHT22;18384;48.860;9.188;2022-09-14T12:04:15;26.40;93.00
31819;DHT22;18384;48.860;9.188;2022-09-14T12:06:44;26.40;92.90
31819;DHT22;18384;48.860;9.188;2022-09-14T12:09:36;26.30;92.90
31819;DHT22;18384;48.860;9.188;2022-09-14T12:12:26;26.30;93.20
31819;DHT22;18384;48.860;9.188;2022-09-14T12:14:58;26.30;92.70
31819;DHT22;18384;48.860;9.188;2022-09-14T12:17:29;26.20;93.00
31819;DHT22;18384;48.860;9.188;2022-09-14T12:20:18;26.10;93.00
31819;DHT22;18384;48.860;9.188;2022-09-14T12:26:31;26.10;93.00
31819;DHT22;18384;48.860;9.188;2022-09-14T12:29:06;25.80;92.90
31819;DHT22;18384;48.860;9.188;2022-09-14T12:32:03;25.70;92.70
31819;DHT22;18384;48.860;9.188;2022-09-14T12:34:31;25.60;92.70
31819;DHT22;18384;48.860;9.188;2022-09-14T12:37:02;25.50;92.80
31819;DHT22;18384;48.860;9.188;2022-09-14T12:39:35;25.30;93.50
31819;DHT22;18384;48.860;9.188;2022-09-14T12:42:25;25.20;93.10
31819;DHT22;18384;48.860;9.188;2022-09-14T12:44:53;25.20;93.20
31819;DHT22;18384;48.860;9.188;2022-09-14T12:47:52;25.20;93.30
31819;DHT22;18384;48.860;9.188;2022-09-14T12:50:19;25.10;93.80
31819;DHT22;18384;48.860;9.188;2022-09-14T12:53:18;25.10;94.20
31819;DHT22;18384;48.860;9.188;2022-09-14T12:56:02;25.00;94.50
31819;DHT22;18384;48.860;9.188;2022-09-14T12:58:42;24.80;96.80
31819;DHT22;18384;48.860;9.188;2022-09-14T13:04:36;24.60;96.60
31819;DHT22;18384;48.860;9.188;2022-09-14T13:07:10;23.80;98.40
31819;DHT22;18384;48.860;9.188;2022-09-14T13:09:55;23.60;98.80
31819;DHT22;18384;48.860;9.188;2022-09-14T13:12:26;23.30;99.20
31819;DHT22;18384;48.860;9.188;2022-09-14T13:16:00;23.10;99.80
31819;DHT22;18384;48.860;9.188;2022-09-14T13:18:31;22.90;99.90
31819;DHT22;18384;48.860;9.188;2022-09-14T13:21:02;22.70;99.90
31819;DHT22;18384;48.860;9.188;2022-09-14T13:23:41;22.60;99.90
31819;DHT22;18384;48.860;9.188;2022-09-14T13:26:14;22.60;99.90
31819;DHT22;18384;48.860;9.188;2022-09-14T13:28:45;22.50;99.90
31819;DHT22;18384;48.860;9.188;2022-09-14T13:31:18;22.50;99.90
31819;DHT22;18384;48.860;9.188;2022-09-14T13:33:54;22.40;99.90
31819;DHT22;18384;48.860;9.188;2022-09-14T13:36:25;22.40;99.90
31819;DHT22;18384;48.860;9.188;2022-09-14T13:38:54;22.20;99.90
31819;DHT22;18384;48.860;9.188;2022-09-14T13:41:21;22.20;99.90
31819;DHT22;18384;48.860;9.188;2022-09-14T13:43:51;22.10;99.90
31819;DHT22;18384;48.860;9.188;2022-09-14T13:46:19;22.10;99.90
31819;DHT22;18384;48.860;9.188;2022-09-14T13:48:47;22.10;99.90
31819;DHT22;18384;48.860;9.188;2022-09-14T13:51:14;22.00;99.90
31819;DHT22;18384;48.860;9.188;2022-09-14T13:53:47;21.90;99.90
31819;DHT22;18384;48.860;9.188;2022-09-14T13:56:28;21.80;99.90
31819;DHT22;18384;48.860;9.188;2022-09-14T14:00:52;21.90;99.90
31819;DHT22;18384;48.860;9.188;2022-09-14T14:03:32;22.00;99.90
31819;DHT22;18384;48.860;9.188;2022-09-14T14:06:20;21.90;99.90
31819;DHT22;18384;48.860;9.188;2022-09-14T14:09:03;22.00;99.90
31819;DHT22;18384;48.860;9.188;2022-09-14T14:11:42;22.00;99.90
31819;DHT22;18384;48.860;9.188;2022-09-14T14:14:22;22.10;99.90
31819;DHT22;18384;48.860;9.188;2022-09-14T14:17:09;22.10;99.90
31819;DHT22;18384;48.860;9.188;2022-09-14T14:21:30;22.20;99.90
31819;DHT22;18384;48.860;9.188;2022-09-14T14:24:26;22.10;99.90
31819;DHT22;18384;48.860;9.188;2022-09-14T14:26:54;22.10;99.90
31819;DHT22;18384;48.860;9.188;2022-09-14T14:29:22;22.20;99.90
31819;DHT22;18384;48.860;9.188;2022-09-14T14:31:49;22.20;99.90
31819;DHT22;18384;48.860;9.188;2022-09-14T14:34:25;22.10;99.90
31819;DHT22;18384;48.860;9.188;2022-09-14T14:36:53;22.10;99.90
31819;DHT22;18384;48.860;9.188;2022-09-14T14:39:22;22.10;99.90
31819;DHT22;18384;48.860;9.188;2022-09-14T14:41:50;22.20;99.90
31819;DHT22;18384;48.860;9.188;2022-09-14T14:44:25;22.10;99.90
31819;DHT22;18384;48.860;9.188;2022-09-14T14:46:55;22.20;99.90
31819;DHT22;18384;48.860;9.188;2022-09-14T14:49:21;22.20;99.90
31819;DHT22;18384;48.860;9.188;2022-09-14T14:51:49;22.10;99.90
31819;DHT22;18384;48.860;9.188;2022-09-14T14:54:16;22.00;99.90
31819;DHT22;18384;48.860;9.188;2022-09-14T14:56:47;22.00;99.90
31819;DHT22;18384;48.860;9.188;2022-09-14T14:59:26;21.90;99.90
31819;DHT22;18384;48.860;9.188;2022-09-14T15:01:55;21.80;99.90
31819;DHT22;18384;48.860;9.188;2022-09-14T15:04:22;21.60;99.90
31819;DHT22;18384;48.860;9.188;2022-09-14T15:06:48;21.60;99.90
31819;DHT22;18384;48.860;9.188;2022-09-14T15:09:23;21.60;99.90
31819;DHT22;18384;48.860;9.188;2022-09-14T15:11:51;21.50;99.90
31819;DHT22;18384;48.860;9.188;2022-09-14T15:14:20;21.40;99.90
31819;DHT22;18384;48.860;9.188;2022-09-14T15:16:47;21.40;99.90
31819;DHT22;18384;48.860;9.188;2022-09-14T15:19:15;21.40;99.90
31819;DHT22;18384;48.860;9.188;2022-09-14T15:21:42;21.40;99.90
31819;DHT22;18384;48.860;9.188;2022-09-14T15:24:09;21.50;99.90
31819;DHT22;18384;48.860;9.188;2022-09-14T15:26:36;21.50;99.90
31819;DHT22;18384;48.860;9.188;2022-09-14T15:29:03;21.50;99.90
31819;DHT22;18384;48.860;9.188;2022-09-14T15:31:30;21.50;99.90
31819;DHT22;18384;48.860;9.188;2022-09-14T15:33:56;21.30;99.90
31819;DHT22;18384;48.860;9.188;2022-09-14T15:36:41;21.50;99.90
31819;DHT22;18384;48.860;9.188;2022-09-14T15:39:13;21.40;99.90
31819;DHT22;18384;48.860;9.188;2022-09-14T15:41:40;21.40;99.90
31819;DHT22;18384;48.860;9.188;2022-09-14T15:44:07;21.60;99.90
31819;DHT22;18384;48.860;9.188;2022-09-14T15:46:34;21.70;99.90
31819;DHT22;18384;48.860;9.188;2022-09-14T15:49:05;21.80;99.90
31819;DHT22;18384;48.860;9.188;2022-09-14T15:51:33;21.90;99.90
31819;DHT22;18384;48.860;9.188;2022-09-14T15:54:00;21.90;99.90
31819;DHT22;18384;48.860;9.188;2022-09-14T15:56:26;22.80;99.90
31819;DHT22;18384;48.860;9.188;2022-09-14T15:58:52;22.10;99.90
31819;DHT22;18384;48.860;9.188;2022-09-14T16:01:19;21.90;99.90
31819;DHT22;18384;48.860;9.188;2022-09-14T16:03:45;21.90;99.90
31819;DHT22;18384;48.860;9.188;2022-09-14T16:06:13;21.80;99.90
31819;DHT22;18384;48.860;9.188;2022-09-14T16:08:40;21.70;99.90
31819;DHT22;18384;48.860;9.188;2022-09-14T16:11:07;21.60;99.90
31819;DHT22;18384;48.860;9.188;2022-09-14T16:13:34;21.50;99.90
31819;DHT22;18384;48.860;9.188;2022-09-14T16:16:09;21.50;99.90
31819;DHT22;18384;48.860;9.188;2022-09-14T16:18:37;21.50;99.90
31819;DHT22;18384;48.860;9.188;2022-09-14T16:21:07;21.40;99.90
31819;DHT22;18384;48.860;9.188;2022-09-14T16:23:40;21.40;99.90
31819;DHT22;18384;48.860;9.188;2022-09-14T16:26:12;21.40;99.90
31819;DHT22;18384;48.860;9.188;2022-09-14T16:28:41;21.40;99.90
31819;DHT22;18384;48.860;9.188;2022-09-14T16:31:11;21.30;99.90
31819;DHT22;18384;48.860;9.188;2022-09-14T16:33:42;21.40;99.90
31819;DHT22;18384;48.860;9.188;2022-09-14T16:36:12;21.30;99.90
31819;DHT22;18384;48.860;9.188;2022-09-14T16:38:42;21.20;99.90
31819;DHT22;18384;48.860;9.188;2022-09-14T16:41:10;21.20;99.90
31819;DHT22;18384;48.860;9.188;2022-09-14T16:43:37;21.30;99.90
31819;DHT22;18384;48.860;9.188;2022-09-14T16:46:10;21.30;99.90
31819;DHT22;18384;48.860;9.188;2022-09-14T16:48:42;21.40;99.90
31819;DHT22;18384;48.860;9.188;2022-09-14T16:51:11;21.20;99.90
31819;DHT22;18384;48.860;9.188;2022-09-14T16:53:40;21.20;99.90
31819;DHT22;18384;48.860;9.188;2022-09-14T16:56:21;21.30;99.90
31819;DHT22;18384;48.860;9.188;2022-09-14T16:58:50;21.30;99.90
31819;DHT22;18384;48.860;9.188;2022-09-14T17:01:29;21.20;99.90
31819;DHT22;18384;48.860;9.188;2022-09-14T17:03:59;21.20;99.90
31819;DHT22;18384;48.860;9.188;2022-09-14T17:06:30;21.10;99.90
31819;DHT22;18384;48.860;9.188;2022-09-14T17:09:00;21.10;99.90
31819;DHT22;18384;48.860;9.188;2022-09-14T17:11:30;21.10;99.90
31819;DHT22;18384;48.860;9.188;2022-09-14T17:13:57;21.10;99.90
31819;DHT22;18384;48.860;9.188;2022-09-14T17:16:23;21.00;99.90
31819;DHT22;18384;48.860;9.188;2022-09-14T17:18:52;21.10;99.90
31819;DHT22;18384;48.860;9.188;2022-09-14T17:21:23;20.90;99.90
31819;DHT22;18384;48.860;9.188;2022-09-14T17:23:52;20.90;99.90
31819;DHT22;18384;48.860;9.188;2022-09-14T17:26:19;20.80;99.90
31819;DHT22;18384;48.860;9.188;2022-09-14T17:28:48;20.80;99.90
31819;DHT22;18384;48.860;9.188;2022-09-14T17:31:19;20.70;99.90
31819;DHT22;18384;48.860;9.188;2022-09-14T17:33:47;20.70;99.90
31819;DHT22;18384;48.860;9.188;2022-09-14T17:36:14;20.70;99.90
31819;DHT22;18384;48.860;9.188;2022-09-14T17:38:42;20.70;99.90